sensor_id;sensor_type;location;lat;lon;timestamp;pressure;altitude;pressure_sealevel;temperature;humidity
54290;BME280;40196;39.774;2.728;2022-07-23T00:01:31;101256.91;;;27.76;45.08
54290;BME280;40196;39.774;2.728;2022-07-23T00:03:56;101250.88;;;27.86;45.18
54290;BME280;40196;39.774;2.728;2022-07-23T00:06:22;101253.03;;;27.96;45.05
54290;BME280;40196;39.774;2.728;2022-07-23T00:08:47;101253.91;;;27.96;45.02
54290;BME280;40196;39.774;2.728;2022-07-23T00:11:12;101250.47;;;28.01;45.26
54290;BME280;40196;39.774;2.728;2022-07-23T00:13:38;101251.78;;;27.98;45.16
54290;BME280;40196;39.774;2.728;2022-07-23T00:16:03;101253.91;;;27.96;45.30
54290;BME280;40196;39.774;2.728;2022-07-23T00:18:29;101258.81;;;27.99;45.09
54290;BME280;40196;39.774;2.728;2022-07-23T00:20:54;101263.53;;;28.04;44.96
54290;BME280;40196;39.774;2.728;2022-07-23T00:23:20;101245.50;;;27.98;44.97
54290;BME280;40196;39.774;2.728;2022-07-23T00:25:45;101259.66;;;28.00;45.08
54290;BME280;40196;39.774;2.728;2022-07-23T00:28:11;101260.94;;;27.97;45.42
54290;BME280;40196;39.774;2.728;2022-07-23T00:30:36;101247.75;;;27.89;45.60
54290;BME280;40196;39.774;2.728;2022-07-23T00:33:03;101258.78;;;27.87;46.49
54290;BME280;40196;39.774;2.728;2022-07-23T00:35:30;101265.28;;;27.86;45.97
54290;BME280;40196;39.774;2.728;2022-07-23T00:37:56;101268.09;;;27.80;46.44
54290;BME280;40196;39.774;2.728;2022-07-23T00:40:21;101258.66;;;27.82;46.18
54290;BME280;40196;39.774;2.728;2022-07-23T00:42:47;101268.22;;;27.85;47.16
54290;BME280;40196;39.774;2.728;2022-07-23T00:45:12;101264.22;;;27.87;47.25
54290;BME280;40196;39.774;2.728;2022-07-23T00:47:37;101267.38;;;27.84;47.32
54290;BME280;40196;39.774;2.728;2022-07-23T00:50:03;101281.50;;;27.63;48.14
54290;BME280;40196;39.774;2.728;2022-07-23T00:52:29;101284.53;;;27.54;47.38
54290;BME280;40196;39.774;2.728;2022-07-23T00:54:55;101284.91;;;27.58;46.97
54290;BME280;40196;39.774;2.728;2022-07-23T00:57:20;101289.72;;;27.44;47.77
54290;BME280;40196;39.774;2.728;2022-07-23T00:59:45;101293.00;;;27.46;47.81
54290;BME280;40196;39.774;2.728;2022-07-23T01:02:11;101290.31;;;27.46;47.84
54290;BME280;40196;39.774;2.728;2022-07-23T01:04:36;101298.75;;;27.38;47.84
54290;BME280;40196;39.774;2.728;2022-07-23T01:07:01;101300.63;;;27.38;48.25
54290;BME280;40196;39.774;2.728;2022-07-23T01:09:27;101296.41;;;27.42;48.17
54290;BME280;40196;39.774;2.728;2022-07-23T01:11:53;101293.13;;;27.40;48.06
54290;BME280;40196;39.774;2.728;2022-07-23T01:14:19;101301.09;;;27.34;48.08
54290;BME280;40196;39.774;2.728;2022-07-23T01:16:45;101306.03;;;27.38;48.23
54290;BME280;40196;39.774;2.728;2022-07-23T01:19:11;101297.91;;;27.07;49.73
54290;BME280;40196;39.774;2.728;2022-07-23T01:21:38;101291.78;;;27.12;49.95
54290;BME280;40196;39.774;2.728;2022-07-23T01:24:04;101292.91;;;27.23;49.61
54290;BME280;40196;39.774;2.728;2022-07-23T01:26:30;101286.81;;;27.27;49.67
54290;BME280;40196;39.774;2.728;2022-07-23T01:28:55;101283.97;;;27.22;49.71
54290;BME280;40196;39.774;2.728;2022-07-23T01:31:21;101278.63;;;27.15;49.96
54290;BME280;40196;39.774;2.728;2022-07-23T01:33:46;101277.56;;;27.17;50.13
54290;BME280;40196;39.774;2.728;2022-07-23T01:36:11;101275.53;;;27.12;49.80
54290;BME280;40196;39.774;2.728;2022-07-23T01:38:37;101269.03;;;27.01;49.48
54290;BME280;40196;39.774;2.728;2022-07-23T01:41:02;101268.59;;;26.86;49.54
54290;BME280;40196;39.774;2.728;2022-07-23T01:43:27;101267.53;;;26.87;49.29
54290;BME280;40196;39.774;2.728;2022-07-23T01:45:53;101267.69;;;26.73;49.95
54290;BME280;40196;39.774;2.728;2022-07-23T01:48:18;101264.38;;;26.53;52.67
54290;BME280;40196;39.774;2.728;2022-07-23T01:50:43;101264.25;;;26.04;54.62
54290;BME280;40196;39.774;2.728;2022-07-23T01:53:10;101266.75;;;26.06;54.60
54290;BME280;40196;39.774;2.728;2022-07-23T01:55:36;101275.16;;;26.16;54.82
54290;BME280;40196;39.774;2.728;2022-07-23T01:58:01;101273.53;;;26.33;53.57
54290;BME280;40196;39.774;2.728;2022-07-23T02:00:26;101275.72;;;26.43;53.43
54290;BME280;40196;39.774;2.728;2022-07-23T02:02:51;101274.13;;;26.54;52.50
54290;BME280;40196;39.774;2.728;2022-07-23T02:05:17;101280.38;;;26.54;52.05
54290;BME280;40196;39.774;2.728;2022-07-23T02:07:42;101280.31;;;26.43;52.42
54290;BME280;40196;39.774;2.728;2022-07-23T02:10:08;101283.63;;;26.45;52.57
54290;BME280;40196;39.774;2.728;2022-07-23T02:12:33;101287.06;;;26.52;52.08
54290;BME280;40196;39.774;2.728;2022-07-23T02:14:58;101283.31;;;26.53;52.63
54290;BME280;40196;39.774;2.728;2022-07-23T02:17:24;101276.03;;;26.53;52.71
54290;BME280;40196;39.774;2.728;2022-07-23T02:19:49;101270.09;;;26.45;52.78
54290;BME280;40196;39.774;2.728;2022-07-23T02:22:14;101274.59;;;26.51;52.63
54290;BME280;40196;39.774;2.728;2022-07-23T02:24:39;101268.44;;;26.44;52.96
54290;BME280;40196;39.774;2.728;2022-07-23T02:27:05;101281.50;;;26.47;52.44
54290;BME280;40196;39.774;2.728;2022-07-23T02:29:30;101279.63;;;26.47;51.68
54290;BME280;40196;39.774;2.728;2022-07-23T02:31:55;101279.03;;;26.45;51.26
54290;BME280;40196;39.774;2.728;2022-07-23T02:34:21;101272.84;;;26.38;51.25
54290;BME280;40196;39.774;2.728;2022-07-23T02:36:46;101269.69;;;26.23;51.87
54290;BME280;40196;39.774;2.728;2022-07-23T02:39:11;101266.75;;;26.24;51.48
54290;BME280;40196;39.774;2.728;2022-07-23T02:41:36;101266.88;;;26.11;52.28
54290;BME280;40196;39.774;2.728;2022-07-23T02:44:02;101263.66;;;26.02;51.87
54290;BME280;40196;39.774;2.728;2022-07-23T02:46:27;101260.28;;;26.07;52.19
54290;BME280;40196;39.774;2.728;2022-07-23T02:48:53;101260.94;;;26.02;51.69
54290;BME280;40196;39.774;2.728;2022-07-23T02:51:18;101249.81;;;25.92;52.15
54290;BME280;40196;39.774;2.728;2022-07-23T02:53:43;101258.06;;;25.97;52.31
54290;BME280;40196;39.774;2.728;2022-07-23T02:56:09;101254.94;;;26.00;52.64
54290;BME280;40196;39.774;2.728;2022-07-23T02:58:34;101244.28;;;26.05;53.19
54290;BME280;40196;39.774;2.728;2022-07-23T03:00:59;101253.66;;;26.03;53.22
54290;BME280;40196;39.774;2.728;2022-07-23T03:03:25;101254.38;;;25.91;53.62
54290;BME280;40196;39.774;2.728;2022-07-23T03:05:50;101243.13;;;25.94;53.77
54290;BME280;40196;39.774;2.728;2022-07-23T03:08:15;101247.47;;;25.95;52.95
54290;BME280;40196;39.774;2.728;2022-07-23T03:10:40;101249.34;;;25.95;51.70
54290;BME280;40196;39.774;2.728;2022-07-23T03:13:06;101247.34;;;25.84;49.22
54290;BME280;40196;39.774;2.728;2022-07-23T03:15:31;101246.59;;;25.76;49.15
54290;BME280;40196;39.774;2.728;2022-07-23T03:17:56;101244.09;;;25.75;50.94
54290;BME280;40196;39.774;2.728;2022-07-23T03:20:22;101248.69;;;25.74;51.33
54290;BME280;40196;39.774;2.728;2022-07-23T03:22:47;101243.44;;;25.80;51.09
54290;BME280;40196;39.774;2.728;2022-07-23T03:25:12;101237.81;;;25.81;51.32
54290;BME280;40196;39.774;2.728;2022-07-23T03:27:38;101242.50;;;25.67;51.75
54290;BME280;40196;39.774;2.728;2022-07-23T03:30:03;101243.19;;;25.63;52.32
54290;BME280;40196;39.774;2.728;2022-07-23T03:32:28;101242.09;;;25.64;52.84
54290;BME280;40196;39.774;2.728;2022-07-23T03:34:54;101244.88;;;25.57;52.59
54290;BME280;40196;39.774;2.728;2022-07-23T03:37:19;101242.06;;;25.45;53.27
54290;BME280;40196;39.774;2.728;2022-07-23T03:39:45;101243.88;;;25.51;53.33
54290;BME280;40196;39.774;2.728;2022-07-23T03:42:10;101249.88;;;25.53;53.17
54290;BME280;40196;39.774;2.728;2022-07-23T03:44:35;101244.63;;;25.58;52.72
54290;BME280;40196;39.774;2.728;2022-07-23T03:47:04;101245.69;;;25.57;53.05
54290;BME280;40196;39.774;2.728;2022-07-23T03:49:30;101251.63;;;25.41;53.54
54290;BME280;40196;39.774;2.728;2022-07-23T03:51:55;101252.78;;;25.20;54.96
54290;BME280;40196;39.774;2.728;2022-07-23T03:54:20;101256.72;;;25.24;53.94
54290;BME280;40196;39.774;2.728;2022-07-23T03:56:46;101255.03;;;25.30;54.08
54290;BME280;40196;39.774;2.728;2022-07-23T03:59:11;101257.34;;;25.26;53.73
54290;BME280;40196;39.774;2.728;2022-07-23T04:01:37;101261.97;;;25.06;53.80
54290;BME280;40196;39.774;2.728;2022-07-23T04:04:02;101253.25;;;25.10;53.92
54290;BME280;40196;39.774;2.728;2022-07-23T04:06:28;101259.88;;;25.14;53.83
54290;BME280;40196;39.774;2.728;2022-07-23T04:08:53;101263.81;;;25.12;53.46
54290;BME280;40196;39.774;2.728;2022-07-23T04:11:19;101264.47;;;25.07;53.11
54290;BME280;40196;39.774;2.728;2022-07-23T04:13:44;101259.56;;;24.84;52.47
54290;BME280;40196;39.774;2.728;2022-07-23T04:16:09;101260.59;;;24.90;52.54
54290;BME280;40196;39.774;2.728;2022-07-23T04:18:35;101266.75;;;25.04;52.19
54290;BME280;40196;39.774;2.728;2022-07-23T04:21:00;101266.97;;;25.02;51.41
54290;BME280;40196;39.774;2.728;2022-07-23T04:23:26;101268.88;;;24.95;51.77
54290;BME280;40196;39.774;2.728;2022-07-23T04:25:51;101283.59;;;24.99;51.23
54290;BME280;40196;39.774;2.728;2022-07-23T04:28:17;101269.75;;;24.89;51.03
54290;BME280;40196;39.774;2.728;2022-07-23T04:30:42;101276.13;;;24.94;49.78
54290;BME280;40196;39.774;2.728;2022-07-23T04:33:07;101272.47;;;24.82;49.93
54290;BME280;40196;39.774;2.728;2022-07-23T04:35:33;101278.53;;;24.64;50.36
54290;BME280;40196;39.774;2.728;2022-07-23T04:37:58;101261.09;;;24.67;50.33
54290;BME280;40196;39.774;2.728;2022-07-23T04:40:24;101274.94;;;24.84;49.98
54290;BME280;40196;39.774;2.728;2022-07-23T04:42:49;101270.97;;;24.86;49.39
54290;BME280;40196;39.774;2.728;2022-07-23T04:45:15;101272.88;;;24.86;48.57
54290;BME280;40196;39.774;2.728;2022-07-23T04:47:40;101275.59;;;24.79;48.15
54290;BME280;40196;39.774;2.728;2022-07-23T04:50:05;101277.09;;;24.62;48.27
54290;BME280;40196;39.774;2.728;2022-07-23T04:52:31;101282.28;;;24.43;49.78
54290;BME280;40196;39.774;2.728;2022-07-23T04:54:56;101273.78;;;24.39;50.10
54290;BME280;40196;39.774;2.728;2022-07-23T04:57:22;101266.13;;;24.43;49.30
54290;BME280;40196;39.774;2.728;2022-07-23T04:59:47;101270.91;;;24.54;49.93
54290;BME280;40196;39.774;2.728;2022-07-23T05:02:12;101268.00;;;24.56;49.55
54290;BME280;40196;39.774;2.728;2022-07-23T05:04:37;101278.53;;;24.64;48.91
54290;BME280;40196;39.774;2.728;2022-07-23T05:07:03;101274.81;;;24.58;49.29
54290;BME280;40196;39.774;2.728;2022-07-23T05:09:29;101274.84;;;24.52;49.34
54290;BME280;40196;39.774;2.728;2022-07-23T05:11:54;101278.56;;;24.51;49.52
54290;BME280;40196;39.774;2.728;2022-07-23T05:14:20;101290.81;;;24.40;49.38
54290;BME280;40196;39.774;2.728;2022-07-23T05:16:45;101284.41;;;24.34;50.06
54290;BME280;40196;39.774;2.728;2022-07-23T05:19:10;101285.22;;;24.35;50.00
54290;BME280;40196;39.774;2.728;2022-07-23T05:21:35;101285.84;;;24.37;50.51
54290;BME280;40196;39.774;2.728;2022-07-23T05:24:01;101285.22;;;24.35;50.91
54290;BME280;40196;39.774;2.728;2022-07-23T05:26:26;101286.03;;;24.35;50.89
54290;BME280;40196;39.774;2.728;2022-07-23T05:28:51;101274.81;;;24.45;50.11
54290;BME280;40196;39.774;2.728;2022-07-23T05:31:17;101282.09;;;24.45;49.77
54290;BME280;40196;39.774;2.728;2022-07-23T05:33:42;101286.66;;;24.44;51.04
54290;BME280;40196;39.774;2.728;2022-07-23T05:36:07;101275.03;;;24.50;49.89
54290;BME280;40196;39.774;2.728;2022-07-23T05:38:33;101278.78;;;24.43;50.88
54290;BME280;40196;39.774;2.728;2022-07-23T05:40:58;101282.50;;;24.41;50.95
54290;BME280;40196;39.774;2.728;2022-07-23T05:43:24;101284.16;;;24.43;50.84
54290;BME280;40196;39.774;2.728;2022-07-23T05:45:49;101281.69;;;24.34;52.03
54290;BME280;40196;39.774;2.728;2022-07-23T05:48:15;101274.63;;;24.47;51.63
54290;BME280;40196;39.774;2.728;2022-07-23T05:50:40;101279.00;;;24.54;50.41
54290;BME280;40196;39.774;2.728;2022-07-23T05:53:06;101285.41;;;24.53;51.29
54290;BME280;40196;39.774;2.728;2022-07-23T05:55:31;101290.81;;;24.60;50.46
54290;BME280;40196;39.774;2.728;2022-07-23T05:57:57;101282.06;;;24.65;50.08
54290;BME280;40196;39.774;2.728;2022-07-23T06:00:23;101278.78;;;24.56;51.07
54290;BME280;40196;39.774;2.728;2022-07-23T06:02:48;101289.13;;;24.59;51.08
54290;BME280;40196;39.774;2.728;2022-07-23T06:05:14;101282.88;;;24.65;51.18
54290;BME280;40196;39.774;2.728;2022-07-23T06:07:39;101287.81;;;24.75;50.22
54290;BME280;40196;39.774;2.728;2022-07-23T06:10:05;101285.75;;;24.84;49.93
54290;BME280;40196;39.774;2.728;2022-07-23T06:12:30;101291.50;;;24.94;49.36
54290;BME280;40196;39.774;2.728;2022-07-23T06:14:56;101287.72;;;25.02;48.80
54290;BME280;40196;39.774;2.728;2022-07-23T06:17:21;101293.94;;;25.09;48.94
54290;BME280;40196;39.774;2.728;2022-07-23T06:19:47;101254.78;;;24.93;49.06
54290;BME280;40196;39.774;2.728;2022-07-23T06:22:12;101292.22;;;25.28;48.69
54290;BME280;40196;39.774;2.728;2022-07-23T06:24:38;101291.50;;;25.39;48.58
54290;BME280;40196;39.774;2.728;2022-07-23T06:27:03;101297.69;;;25.53;48.24
54290;BME280;40196;39.774;2.728;2022-07-23T06:29:29;101291.63;;;25.57;46.94
54290;BME280;40196;39.774;2.728;2022-07-23T06:31:54;101288.09;;;25.57;45.83
54290;BME280;40196;39.774;2.728;2022-07-23T06:34:19;101290.34;;;25.60;46.00
54290;BME280;40196;39.774;2.728;2022-07-23T06:36:45;101294.13;;;25.84;46.61
54290;BME280;40196;39.774;2.728;2022-07-23T06:39:10;101290.28;;;25.99;47.00
54290;BME280;40196;39.774;2.728;2022-07-23T06:41:35;101289.41;;;26.05;44.49
54290;BME280;40196;39.774;2.728;2022-07-23T06:44:01;101283.56;;;26.08;44.06
54290;BME280;40196;39.774;2.728;2022-07-23T06:46:26;101289.06;;;26.20;44.16
54290;BME280;40196;39.774;2.728;2022-07-23T06:48:51;101290.97;;;26.38;44.95
54290;BME280;40196;39.774;2.728;2022-07-23T06:51:17;101290.44;;;26.47;42.88
54290;BME280;40196;39.774;2.728;2022-07-23T06:53:42;101289.09;;;26.56;41.79
54290;BME280;40196;39.774;2.728;2022-07-23T06:56:07;101298.97;;;26.69;41.32
54290;BME280;40196;39.774;2.728;2022-07-23T06:58:33;101287.56;;;26.86;40.82
54290;BME280;40196;39.774;2.728;2022-07-23T07:00:58;101278.56;;;27.04;41.01
54290;BME280;40196;39.774;2.728;2022-07-23T07:03:23;101289.00;;;27.19;39.81
54290;BME280;40196;39.774;2.728;2022-07-23T07:05:49;101285.53;;;27.30;38.77
54290;BME280;40196;39.774;2.728;2022-07-23T07:08:15;101284.66;;;27.48;38.66
54290;BME280;40196;39.774;2.728;2022-07-23T07:10:40;101266.91;;;27.64;38.95
54290;BME280;40196;39.774;2.728;2022-07-23T07:13:05;101268.69;;;27.82;39.22
54290;BME280;40196;39.774;2.728;2022-07-23T07:15:31;101269.31;;;27.96;39.14
54290;BME280;40196;39.774;2.728;2022-07-23T07:17:56;101270.25;;;28.13;38.58
54290;BME280;40196;39.774;2.728;2022-07-23T07:20:21;101273.19;;;28.23;36.86
54290;BME280;40196;39.774;2.728;2022-07-23T07:22:47;101274.84;;;28.36;37.04
54290;BME280;40196;39.774;2.728;2022-07-23T07:25:12;101273.44;;;28.45;36.63
54290;BME280;40196;39.774;2.728;2022-07-23T07:27:37;101275.91;;;28.47;39.34
54290;BME280;40196;39.774;2.728;2022-07-23T07:30:03;101286.50;;;28.60;39.61
54290;BME280;40196;39.774;2.728;2022-07-23T07:32:29;101277.44;;;28.66;39.08
54290;BME280;40196;39.774;2.728;2022-07-23T07:34:54;101278.69;;;28.76;38.97
54290;BME280;40196;39.774;2.728;2022-07-23T07:37:20;101272.31;;;28.70;38.14
54290;BME280;40196;39.774;2.728;2022-07-23T07:39:45;101284.97;;;28.76;38.17
54290;BME280;40196;39.774;2.728;2022-07-23T07:42:10;101290.72;;;28.80;36.63
54290;BME280;40196;39.774;2.728;2022-07-23T07:44:36;101290.94;;;28.90;37.05
54290;BME280;40196;39.774;2.728;2022-07-23T07:47:01;101281.59;;;28.98;36.37
54290;BME280;40196;39.774;2.728;2022-07-23T07:49:26;101279.81;;;29.03;35.59
54290;BME280;40196;39.774;2.728;2022-07-23T07:51:52;101292.81;;;29.01;35.76
54290;BME280;40196;39.774;2.728;2022-07-23T07:54:17;101290.88;;;29.14;36.01
54290;BME280;40196;39.774;2.728;2022-07-23T07:56:42;101288.34;;;29.24;34.35
54290;BME280;40196;39.774;2.728;2022-07-23T07:59:08;101289.72;;;29.38;32.17
54290;BME280;40196;39.774;2.728;2022-07-23T08:01:33;101295.38;;;29.54;32.90
54290;BME280;40196;39.774;2.728;2022-07-23T08:03:58;101292.63;;;29.65;33.16
54290;BME280;40196;39.774;2.728;2022-07-23T08:06:24;101296.69;;;29.80;33.42
54290;BME280;40196;39.774;2.728;2022-07-23T08:08:49;101297.41;;;29.92;33.33
54290;BME280;40196;39.774;2.728;2022-07-23T08:11:14;101294.88;;;30.02;33.59
54290;BME280;40196;39.774;2.728;2022-07-23T08:13:40;101299.38;;;30.14;32.31
54290;BME280;40196;39.774;2.728;2022-07-23T08:16:06;101304.66;;;30.20;32.16
54290;BME280;40196;39.774;2.728;2022-07-23T08:18:31;101296.06;;;30.28;32.37
54290;BME280;40196;39.774;2.728;2022-07-23T08:20:56;101295.34;;;30.33;31.95
54290;BME280;40196;39.774;2.728;2022-07-23T08:23:22;101296.31;;;30.44;32.07
54290;BME280;40196;39.774;2.728;2022-07-23T08:25:47;101291.44;;;30.46;31.64
54290;BME280;40196;39.774;2.728;2022-07-23T08:28:13;101295.88;;;30.52;31.43
54290;BME280;40196;39.774;2.728;2022-07-23T08:30:40;101295.44;;;30.60;31.55
54290;BME280;40196;39.774;2.728;2022-07-23T08:33:06;101299.94;;;30.72;30.89
54290;BME280;40196;39.774;2.728;2022-07-23T08:35:36;101302.53;;;30.83;30.73
54290;BME280;40196;39.774;2.728;2022-07-23T08:38:03;101299.13;;;30.93;30.90
54290;BME280;40196;39.774;2.728;2022-07-23T08:40:30;101299.75;;;31.00;30.22
54290;BME280;40196;39.774;2.728;2022-07-23T08:42:56;101305.00;;;31.07;30.14
54290;BME280;40196;39.774;2.728;2022-07-23T08:45:22;101295.63;;;31.20;28.81
54290;BME280;40196;39.774;2.728;2022-07-23T08:47:48;101302.25;;;31.29;29.48
54290;BME280;40196;39.774;2.728;2022-07-23T08:50:14;101293.59;;;31.37;28.77
54290;BME280;40196;39.774;2.728;2022-07-23T08:52:40;101305.72;;;31.47;28.26
54290;BME280;40196;39.774;2.728;2022-07-23T08:55:05;101302.53;;;31.60;27.74
54290;BME280;40196;39.774;2.728;2022-07-23T08:57:32;101298.84;;;31.71;28.06
54290;BME280;40196;39.774;2.728;2022-07-23T08:59:57;101301.66;;;31.81;28.50
54290;BME280;40196;39.774;2.728;2022-07-23T09:02:22;101305.53;;;31.91;28.71
54290;BME280;40196;39.774;2.728;2022-07-23T09:04:48;101312.16;;;32.00;29.93
54290;BME280;40196;39.774;2.728;2022-07-23T09:07:13;101316.63;;;32.11;33.49
54290;BME280;40196;39.774;2.728;2022-07-23T09:09:39;101304.16;;;32.20;33.16
54290;BME280;40196;39.774;2.728;2022-07-23T09:12:08;101315.63;;;32.28;35.41
54290;BME280;40196;39.774;2.728;2022-07-23T09:14:40;101297.31;;;32.23;33.92
54290;BME280;40196;39.774;2.728;2022-07-23T09:17:13;101320.31;;;32.37;35.23
54290;BME280;40196;39.774;2.728;2022-07-23T09:19:39;101317.63;;;32.42;35.90
54290;BME280;40196;39.774;2.728;2022-07-23T09:22:26;101323.69;;;32.50;34.68
54290;BME280;40196;39.774;2.728;2022-07-23T09:25:03;101323.41;;;32.51;34.59
54290;BME280;40196;39.774;2.728;2022-07-23T09:30:12;101320.25;;;32.70;34.64
54290;BME280;40196;39.774;2.728;2022-07-23T09:32:38;101323.53;;;32.72;33.73
54290;BME280;40196;39.774;2.728;2022-07-23T09:35:04;101325.75;;;32.80;34.82
54290;BME280;40196;39.774;2.728;2022-07-23T09:37:29;101326.31;;;32.82;36.52
54290;BME280;40196;39.774;2.728;2022-07-23T09:40:02;101331.81;;;32.87;35.47
54290;BME280;40196;39.774;2.728;2022-07-23T09:42:29;101330.19;;;32.96;33.73
54290;BME280;40196;39.774;2.728;2022-07-23T09:44:55;101336.44;;;32.92;36.78
54290;BME280;40196;39.774;2.728;2022-07-23T09:47:22;101338.09;;;32.98;36.05
54290;BME280;40196;39.774;2.728;2022-07-23T09:49:57;101337.91;;;33.10;37.35
54290;BME280;40196;39.774;2.728;2022-07-23T09:52:32;101337.91;;;33.15;33.69
54290;BME280;40196;39.774;2.728;2022-07-23T09:55:02;101336.88;;;33.26;33.30
54290;BME280;40196;39.774;2.728;2022-07-23T09:57:28;101342.91;;;33.33;33.46
54290;BME280;40196;39.774;2.728;2022-07-23T09:59:55;101341.81;;;33.39;32.02
54290;BME280;40196;39.774;2.728;2022-07-23T10:02:22;101332.53;;;33.46;31.46
54290;BME280;40196;39.774;2.728;2022-07-23T10:04:48;101338.25;;;33.54;31.59
54290;BME280;40196;39.774;2.728;2022-07-23T10:07:14;101333.66;;;33.65;31.06
54290;BME280;40196;39.774;2.728;2022-07-23T10:09:42;101332.28;;;33.68;31.28
54290;BME280;40196;39.774;2.728;2022-07-23T10:12:12;101324.09;;;33.73;28.74
54290;BME280;40196;39.774;2.728;2022-07-23T10:14:38;101326.53;;;33.79;28.88
54290;BME280;40196;39.774;2.728;2022-07-23T10:17:03;101332.03;;;33.90;29.06
54290;BME280;40196;39.774;2.728;2022-07-23T10:19:29;101322.44;;;33.92;28.01
54290;BME280;40196;39.774;2.728;2022-07-23T10:21:58;101324.88;;;34.04;28.04
54290;BME280;40196;39.774;2.728;2022-07-23T10:32:17;101326.53;;;34.26;31.12
54290;BME280;40196;39.774;2.728;2022-07-23T10:38:07;101332.78;;;34.42;30.86
54290;BME280;40196;39.774;2.728;2022-07-23T10:40:16;101334.94;;;34.50;31.27
54290;BME280;40196;39.774;2.728;2022-07-23T10:42:45;101336.59;;;34.56;28.04
54290;BME280;40196;39.774;2.728;2022-07-23T10:45:30;101337.41;;;34.56;27.48
54290;BME280;40196;39.774;2.728;2022-07-23T10:47:56;101339.59;;;34.54;29.01
54290;BME280;40196;39.774;2.728;2022-07-23T10:50:36;101330.31;;;34.45;33.02
54290;BME280;40196;39.774;2.728;2022-07-23T10:53:17;101330.84;;;34.52;32.18
54290;BME280;40196;39.774;2.728;2022-07-23T10:55:47;101331.66;;;34.48;33.86
54290;BME280;40196;39.774;2.728;2022-07-23T10:58:20;101330.25;;;34.66;31.92
54290;BME280;40196;39.774;2.728;2022-07-23T11:00:45;101337.09;;;34.63;31.96
54290;BME280;40196;39.774;2.728;2022-07-23T11:03:30;101340.66;;;34.69;31.57
54290;BME280;40196;39.774;2.728;2022-07-23T11:05:57;101339.53;;;34.80;32.94
54290;BME280;40196;39.774;2.728;2022-07-23T11:08:22;101329.16;;;34.72;33.04
54290;BME280;40196;39.774;2.728;2022-07-23T11:10:52;101329.34;;;34.86;30.57
54290;BME280;40196;39.774;2.728;2022-07-23T11:16:23;101337.25;;;34.98;26.87
54290;BME280;40196;39.774;2.728;2022-07-23T11:24:03;101334.63;;;35.27;25.13
54290;BME280;40196;39.774;2.728;2022-07-23T11:31:52;101333.66;;;35.52;26.06
54290;BME280;40196;39.774;2.728;2022-07-23T11:36:58;101330.38;;;35.50;25.90
54290;BME280;40196;39.774;2.728;2022-07-23T11:39:24;101320.81;;;35.47;26.11
54290;BME280;40196;39.774;2.728;2022-07-23T11:41:50;101324.63;;;35.46;26.29
54290;BME280;40196;39.774;2.728;2022-07-23T11:47:24;101321.53;;;35.58;24.79
54290;BME280;40196;39.774;2.728;2022-07-23T11:49:55;101314.88;;;35.64;24.71
54290;BME280;40196;39.774;2.728;2022-07-23T11:52:21;101321.84;;;35.86;24.53
54290;BME280;40196;39.774;2.728;2022-07-23T11:54:48;101313.31;;;35.92;24.93
54290;BME280;40196;39.774;2.728;2022-07-23T11:57:14;101312.44;;;35.97;24.59
54290;BME280;40196;39.774;2.728;2022-07-23T11:59:39;101307.88;;;35.82;25.77
54290;BME280;40196;39.774;2.728;2022-07-23T12:02:05;101312.03;;;35.80;24.85
54290;BME280;40196;39.774;2.728;2022-07-23T12:04:37;101308.72;;;35.83;24.43
54290;BME280;40196;39.774;2.728;2022-07-23T12:07:03;101310.81;;;35.96;24.98
54290;BME280;40196;39.774;2.728;2022-07-23T12:09:29;101305.44;;;36.10;25.57
54290;BME280;40196;39.774;2.728;2022-07-23T12:12:00;101298.69;;;36.26;25.77
54290;BME280;40196;39.774;2.728;2022-07-23T12:14:26;101301.56;;;36.40;26.20
54290;BME280;40196;39.774;2.728;2022-07-23T12:17:10;101299.50;;;36.51;25.39
54290;BME280;40196;39.774;2.728;2022-07-23T12:19:35;101304.19;;;36.50;25.29
54290;BME280;40196;39.774;2.728;2022-07-23T12:22:01;101293.88;;;36.61;25.00
54290;BME280;40196;39.774;2.728;2022-07-23T12:24:26;101292.22;;;36.65;24.51
54290;BME280;40196;39.774;2.728;2022-07-23T12:27:07;101299.16;;;36.58;24.69
54290;BME280;40196;39.774;2.728;2022-07-23T12:29:35;101286.53;;;36.57;24.55
54290;BME280;40196;39.774;2.728;2022-07-23T12:32:01;101291.91;;;36.67;24.93
54290;BME280;40196;39.774;2.728;2022-07-23T12:34:27;101281.06;;;36.76;24.46
54290;BME280;40196;39.774;2.728;2022-07-23T12:36:52;101283.94;;;36.89;24.67
54290;BME280;40196;39.774;2.728;2022-07-23T12:39:29;101287.09;;;36.97;23.35
54290;BME280;40196;39.774;2.728;2022-07-23T12:41:54;101283.91;;;37.08;22.91
54290;BME280;40196;39.774;2.728;2022-07-23T12:44:21;101286.66;;;37.08;22.55
54290;BME280;40196;39.774;2.728;2022-07-23T12:46:52;101282.88;;;37.04;22.80
54290;BME280;40196;39.774;2.728;2022-07-23T12:49:27;101282.16;;;37.18;23.46
54290;BME280;40196;39.774;2.728;2022-07-23T12:51:52;101282.94;;;37.37;22.76
54290;BME280;40196;39.774;2.728;2022-07-23T12:54:18;101278.47;;;37.60;22.89
54290;BME280;40196;39.774;2.728;2022-07-23T12:56:46;101281.25;;;37.74;22.52
54290;BME280;40196;39.774;2.728;2022-07-23T12:59:13;101278.50;;;37.88;23.08
54290;BME280;40196;39.774;2.728;2022-07-23T13:01:44;101281.69;;;37.81;20.72
54290;BME280;40196;39.774;2.728;2022-07-23T13:04:20;101278.91;;;37.81;22.29
54290;BME280;40196;39.774;2.728;2022-07-23T13:06:47;101271.59;;;37.91;22.95
54290;BME280;40196;39.774;2.728;2022-07-23T13:09:17;101288.13;;;37.91;22.71
54290;BME280;40196;39.774;2.728;2022-07-23T13:11:43;101287.69;;;37.83;22.90
54290;BME280;40196;39.774;2.728;2022-07-23T13:14:10;101287.03;;;37.73;23.20
54290;BME280;40196;39.774;2.728;2022-07-23T13:16:35;101287.56;;;37.75;23.54
54290;BME280;40196;39.774;2.728;2022-07-23T13:19:01;101282.41;;;37.87;23.08